sensor_id;sensor_type;location;lat;lon;timestamp;P1;durP1;ratioP1;P2;durP2;ratioP2
64560;SDS011;50960;46.838;16.838;2023-02-28T05:29:20;12.35;;;10.23;;
64560;SDS011;50960;46.838;16.838;2023-02-28T05:31:47;12.05;;;9.50;;
64560;SDS011;50960;46.838;16.838;2023-02-28T05:34:13;11.70;;;10.50;;
64560;SDS011;50960;46.838;16.838;2023-02-28T05:36:41;13.10;;;11.02;;
64560;SDS011;50960;46.838;16.838;2023-02-28T05:39:08;13.70;;;11.43;;
64560;SDS011;50960;46.838;16.838;2023-02-28T05:41:38;14.38;;;11.55;;
64560;SDS011;50960;46.838;16.838;2023-02-28T05:44:08;15.45;;;12.27;;
64560;SDS011;50960;46.838;16.838;2023-02-28T05:46:35;14.77;;;12.32;;
64560;SDS011;50960;46.838;16.838;2023-02-28T05:49:02;16.77;;;13.88;;
64560;SDS011;50960;46.838;16.838;2023-02-28T05:51:28;16.35;;;12.45;;
64560;SDS011;50960;46.838;16.838;2023-02-28T05:53:58;16.13;;;13.02;;
64560;SDS011;50960;46.838;16.838;2023-02-28T05:56:25;17.92;;;13.50;;
64560;SDS011;50960;46.838;16.838;2023-02-28T05:58:51;16.10;;;13.07;;
64560;SDS011;50960;46.838;16.838;2023-02-28T06:03:56;14.52;;;13.02;;
64560;SDS011;50960;46.838;16.838;2023-02-28T06:06:23;14.60;;;11.95;;
64560;SDS011;50960;46.838;16.838;2023-02-28T06:08:49;23.90;;;19.10;;
64560;SDS011;50960;46.838;16.838;2023-02-28T06:11:16;24.63;;;19.98;;
64560;SDS011;50960;46.838;16.838;2023-02-28T06:13:43;18.88;;;15.85;;
64560;SDS011;50960;46.838;16.838;2023-02-28T06:16:10;14.35;;;12.75;;
64560;SDS011;50960;46.838;16.838;2023-02-28T06:18:36;15.27;;;12.52;;
64560;SDS011;50960;46.838;16.838;2023-02-28T06:21:03;18.08;;;13.80;;
64560;SDS011;50960;46.838;16.838;2023-02-28T06:23:30;16.00;;;13.52;;
64560;SDS011;50960;46.838;16.838;2023-02-28T06:25:56;15.23;;;13.63;;
64560;SDS011;50960;46.838;16.838;2023-02-28T06:28:24;17.05;;;14.18;;
64560;SDS011;50960;46.838;16.838;2023-02-28T06:30:51;16.98;;;14.35;;
64560;SDS011;50960;46.838;16.838;2023-02-28T06:33:18;16.05;;;13.90;;
64560;SDS011;50960;46.838;16.838;2023-02-28T06:35:44;17.63;;;13.20;;
64560;SDS011;50960;46.838;16.838;2023-02-28T06:38:13;13.80;;;12.00;;
64560;SDS011;50960;46.838;16.838;2023-02-28T06:40:39;17.25;;;13.25;;
64560;SDS011;50960;46.838;16.838;2023-02-28T06:43:06;15.00;;;13.02;;
64560;SDS011;50960;46.838;16.838;2023-02-28T06:45:32;15.43;;;12.32;;
64560;SDS011;50960;46.838;16.838;2023-02-28T06:48:00;15.65;;;13.25;;
64560;SDS011;50960;46.838;16.838;2023-02-28T06:50:26;14.38;;;12.15;;
64560;SDS011;50960;46.838;16.838;2023-02-28T06:52:54;14.63;;;13.00;;
64560;SDS011;50960;46.838;16.838;2023-02-28T06:55:21;15.20;;;12.98;;
64560;SDS011;50960;46.838;16.838;2023-02-28T06:57:47;16.85;;;13.15;;
64560;SDS011;50960;46.838;16.838;2023-02-28T07:00:16;15.50;;;12.80;;
64560;SDS011;50960;46.838;16.838;2023-02-28T07:02:42;17.35;;;14.77;;
64560;SDS011;50960;46.838;16.838;2023-02-28T07:05:10;18.27;;;14.77;;
64560;SDS011;50960;46.838;16.838;2023-02-28T07:07:36;16.13;;;12.98;;
64560;SDS011;50960;46.838;16.838;2023-02-28T07:10:06;16.88;;;13.30;;
64560;SDS011;50960;46.838;16.838;2023-02-28T07:12:33;17.55;;;13.70;;
64560;SDS011;50960;46.838;16.838;2023-02-28T07:14:59;16.80;;;13.02;;
64560;SDS011;50960;46.838;16.838;2023-02-28T07:17:25;13.45;;;11.52;;
64560;SDS011;50960;46.838;16.838;2023-02-28T07:19:51;13.95;;;11.02;;
64560;SDS011;50960;46.838;16.838;2023-02-28T07:22:18;13.65;;;11.98;;
64560;SDS011;50960;46.838;16.838;2023-02-28T07:24:44;13.98;;;12.18;;
64560;SDS011;50960;46.838;16.838;2023-02-28T07:27:10;17.95;;;12.88;;
64560;SDS011;50960;46.838;16.838;2023-02-28T07:29:37;16.15;;;13.18;;
64560;SDS011;50960;46.838;16.838;2023-02-28T07:32:03;14.32;;;11.52;;
64560;SDS011;50960;46.838;16.838;2023-02-28T07:34:30;13.88;;;11.13;;
64560;SDS011;50960;46.838;16.838;2023-02-28T07:36:56;16.77;;;12.75;;
64560;SDS011;50960;46.838;16.838;2023-02-28T07:39:23;14.32;;;12.50;;
64560;SDS011;50960;46.838;16.838;2023-02-28T07:41:50;19.10;;;15.93;;
64560;SDS011;50960;46.838;16.838;2023-02-28T07:44:17;14.95;;;12.25;;
64560;SDS011;50960;46.838;16.838;2023-02-28T07:46:44;12.73;;;10.73;;
64560;SDS011;50960;46.838;16.838;2023-02-28T07:49:10;12.15;;;10.05;;
64560;SDS011;50960;46.838;16.838;2023-02-28T07:51:36;12.63;;;10.40;;
64560;SDS011;50960;46.838;16.838;2023-02-28T07:54:03;12.02;;;10.48;;
64560;SDS011;50960;46.838;16.838;2023-02-28T07:56:29;12.63;;;10.93;;
64560;SDS011;50960;46.838;16.838;2023-02-28T07:58:57;11.70;;;9.88;;
64560;SDS011;50960;46.838;16.838;2023-02-28T08:01:23;10.45;;;9.35;;
64560;SDS011;50960;46.838;16.838;2023-02-28T08:03:50;11.82;;;9.80;;
64560;SDS011;50960;46.838;16.838;2023-02-28T08:06:18;11.55;;;9.98;;
64560;SDS011;50960;46.838;16.838;2023-02-28T08:08:45;11.52;;;9.57;;
64560;SDS011;50960;46.838;16.838;2023-02-28T08:11:12;11.35;;;10.15;;
64560;SDS011;50960;46.838;16.838;2023-02-28T08:13:39;11.77;;;10.10;;
64560;SDS011;50960;46.838;16.838;2023-02-28T08:16:05;12.30;;;10.27;;
64560;SDS011;50960;46.838;16.838;2023-02-28T08:18:32;14.27;;;10.40;;
64560;SDS011;50960;46.838;16.838;2023-02-28T08:20:58;11.23;;;10.00;;
64560;SDS011;50960;46.838;16.838;2023-02-28T08:23:25;10.02;;;8.98;;
64560;SDS011;50960;46.838;16.838;2023-02-28T08:25:55;12.30;;;9.57;;
64560;SDS011;50960;46.838;16.838;2023-02-28T08:28:23;10.60;;;9.48;;
64560;SDS011;50960;46.838;16.838;2023-02-28T08:30:50;10.05;;;9.00;;
64560;SDS011;50960;46.838;16.838;2023-02-28T08:33:16;10.52;;;9.40;;
64560;SDS011;50960;46.838;16.838;2023-02-28T08:35:42;10.25;;;8.85;;
64560;SDS011;50960;46.838;16.838;2023-02-28T08:38:09;11.48;;;9.10;;
64560;SDS011;50960;46.838;16.838;2023-02-28T08:40:35;10.75;;;9.48;;
64560;SDS011;50960;46.838;16.838;2023-02-28T08:43:02;11.10;;;8.82;;
64560;SDS011;50960;46.838;16.838;2023-02-28T08:45:28;9.75;;;8.73;;
64560;SDS011;50960;46.838;16.838;2023-02-28T08:47:55;8.27;;;7.40;;
64560;SDS011;50960;46.838;16.838;2023-02-28T08:50:21;7.05;;;6.35;;
64560;SDS011;50960;46.838;16.838;2023-02-28T08:52:48;7.60;;;6.78;;
64560;SDS011;50960;46.838;16.838;2023-02-28T08:55:14;7.53;;;6.80;;
64560;SDS011;50960;46.838;16.838;2023-02-28T08:57:40;9.07;;;6.93;;
64560;SDS011;50960;46.838;16.838;2023-02-28T09:00:07;8.45;;;6.72;;
64560;SDS011;50960;46.838;16.838;2023-02-28T09:02:34;8.23;;;7.32;;
64560;SDS011;50960;46.838;16.838;2023-02-28T09:05:00;9.73;;;7.03;;
64560;SDS011;50960;46.838;16.838;2023-02-28T09:07:27;9.25;;;7.03;;
64560;SDS011;50960;46.838;16.838;2023-02-28T09:09:53;8.43;;;6.95;;
64560;SDS011;50960;46.838;16.838;2023-02-28T09:12:23;10.05;;;7.22;;
64560;SDS011;50960;46.838;16.838;2023-02-28T09:14:51;7.78;;;6.93;;
64560;SDS011;50960;46.838;16.838;2023-02-28T09:17:17;8.68;;;6.72;;
64560;SDS011;50960;46.838;16.838;2023-02-28T09:19:44;12.15;;;10.13;;
64560;SDS011;50960;46.838;16.838;2023-02-28T09:22:12;8.00;;;7.20;;
64560;SDS011;50960;46.838;16.838;2023-02-28T09:24:39;7.78;;;7.03;;
64560;SDS011;50960;46.838;16.838;2023-02-28T09:27:05;8.65;;;6.90;;
64560;SDS011;50960;46.838;16.838;2023-02-28T09:29:32;8.52;;;6.40;;
64560;SDS011;50960;46.838;16.838;2023-02-28T09:32:00;9.25;;;6.88;;
64560;SDS011;50960;46.838;16.838;2023-02-28T09:34:27;7.88;;;7.07;;
64560;SDS011;50960;46.838;16.838;2023-02-28T09:36:57;7.93;;;7.13;;
64560;SDS011;50960;46.838;16.838;2023-02-28T09:39:24;8.38;;;7.50;;
64560;SDS011;50960;46.838;16.838;2023-02-28T09:41:52;7.93;;;7.13;;
64560;SDS011;50960;46.838;16.838;2023-02-28T09:47:00;8.45;;;7.60;;
64560;SDS011;50960;46.838;16.838;2023-02-28T09:49:40;8.50;;;7.70;;
64560;SDS011;50960;46.838;16.838;2023-02-28T09:52:17;9.15;;;7.70;;
64560;SDS011;50960;46.838;16.838;2023-02-28T09:54:53;8.63;;;7.72;;
64560;SDS011;50960;46.838;16.838;2023-02-28T10:05:13;9.05;;;8.15;;
64560;SDS011;50960;46.838;16.838;2023-02-28T10:10:28;15.68;;;13.77;;
64560;SDS011;50960;46.838;16.838;2023-02-28T10:13:02;9.15;;;8.25;;
64560;SDS011;50960;46.838;16.838;2023-02-28T10:15:37;10.07;;;8.40;;
64560;SDS011;50960;46.838;16.838;2023-02-28T10:18:04;9.88;;;8.80;;
64560;SDS011;50960;46.838;16.838;2023-02-28T10:20:37;8.77;;;7.97;;
64560;SDS011;50960;46.838;16.838;2023-02-28T10:23:11;8.90;;;8.00;;
64560;SDS011;50960;46.838;16.838;2023-02-28T10:25:58;8.45;;;7.55;;
64560;SDS011;50960;46.838;16.838;2023-02-28T10:28:26;9.55;;;7.53;;
64560;SDS011;50960;46.838;16.838;2023-02-28T10:30:56;9.90;;;8.90;;
64560;SDS011;50960;46.838;16.838;2023-02-28T10:35:56;10.05;;;9.05;;
64560;SDS011;50960;46.838;16.838;2023-02-28T10:38:25;9.32;;;8.35;;
64560;SDS011;50960;46.838;16.838;2023-02-28T10:41:11;9.05;;;8.05;;
64560;SDS011;50960;46.838;16.838;2023-02-28T10:44:20;10.32;;;8.50;;
64560;SDS011;50960;46.838;16.838;2023-02-28T10:46:49;9.30;;;8.40;;
64560;SDS011;50960;46.838;16.838;2023-02-28T10:49:17;9.48;;;8.48;;
64560;SDS011;50960;46.838;16.838;2023-02-28T10:51:49;9.73;;;8.57;;
64560;SDS011;50960;46.838;16.838;2023-02-28T10:54:24;11.05;;;8.38;;
64560;SDS011;50960;46.838;16.838;2023-02-28T10:59:38;9.95;;;8.73;;
64560;SDS011;50960;46.838;16.838;2023-02-28T11:02:28;11.77;;;8.88;;
64560;SDS011;50960;46.838;16.838;2023-02-28T11:04:55;10.15;;;8.93;;
64560;SDS011;50960;46.838;16.838;2023-02-28T11:07:22;9.43;;;8.40;;
64560;SDS011;50960;46.838;16.838;2023-02-28T11:09:51;8.82;;;7.60;;
64560;SDS011;50960;46.838;16.838;2023-02-28T11:14:48;7.53;;;6.82;;
64560;SDS011;50960;46.838;16.838;2023-02-28T11:17:21;8.00;;;7.30;;
64560;SDS011;50960;46.838;16.838;2023-02-28T11:19:50;8.10;;;7.23;;
64560;SDS011;50960;46.838;16.838;2023-02-28T11:22:21;7.97;;;7.28;;
64560;SDS011;50960;46.838;16.838;2023-02-28T11:24:52;8.60;;;7.20;;
64560;SDS011;50960;46.838;16.838;2023-02-28T11:27:25;8.85;;;7.95;;
64560;SDS011;50960;46.838;16.838;2023-02-28T11:29:51;8.30;;;7.13;;
64560;SDS011;50960;46.838;16.838;2023-02-28T11:32:19;8.40;;;7.60;;
64560;SDS011;50960;46.838;16.838;2023-02-28T11:34:59;8.43;;;7.25;;
64560;SDS011;50960;46.838;16.838;2023-02-28T11:37:28;8.52;;;7.75;;
64560;SDS011;50960;46.838;16.838;2023-02-28T11:39:56;8.18;;;7.38;;
64560;SDS011;50960;46.838;16.838;2023-02-28T11:42:41;8.02;;;7.22;;
64560;SDS011;50960;46.838;16.838;2023-02-28T11:50:36;7.35;;;6.65;;
64560;SDS011;50960;46.838;16.838;2023-02-28T11:55:58;8.95;;;7.40;;
64560;SDS011;50960;46.838;16.838;2023-02-28T12:09:31;7.90;;;7.20;;
64560;SDS011;50960;46.838;16.838;2023-02-28T12:20:37;8.25;;;7.45;;
64560;SDS011;50960;46.838;16.838;2023-02-28T12:26:29;8.10;;;7.40;;
64560;SDS011;50960;46.838;16.838;2023-02-28T12:29:17;8.02;;;7.15;;
64560;SDS011;50960;46.838;16.838;2023-02-28T12:31:56;7.22;;;6.53;;
64560;SDS011;50960;46.838;16.838;2023-02-28T12:34:31;7.80;;;7.00;;
64560;SDS011;50960;46.838;16.838;2023-02-28T12:37:02;8.48;;;7.78;;
64560;SDS011;50960;46.838;16.838;2023-02-28T12:39:37;8.73;;;7.93;;
64560;SDS011;50960;46.838;16.838;2023-02-28T12:42:28;9.40;;;8.50;;
64560;SDS011;50960;46.838;16.838;2023-02-28T12:45:02;9.88;;;8.35;;
64560;SDS011;50960;46.838;16.838;2023-02-28T12:47:35;9.88;;;8.73;;
64560;SDS011;50960;46.838;16.838;2023-02-28T12:50:06;9.25;;;8.38;;
64560;SDS011;50960;46.838;16.838;2023-02-28T12:52:59;8.18;;;7.43;;
64560;SDS011;50960;46.838;16.838;2023-02-28T13:06:23;8.40;;;7.60;;
64560;SDS011;50960;46.838;16.838;2023-02-28T13:09:02;8.82;;;7.93;;
64560;SDS011;50960;46.838;16.838;2023-02-28T13:19:36;7.80;;;7.05;;
64560;SDS011;50960;46.838;16.838;2023-02-28T13:22:21;7.93;;;7.22;;
64560;SDS011;50960;46.838;16.838;2023-02-28T13:27:49;7.53;;;6.90;;
64560;SDS011;50960;46.838;16.838;2023-02-28T13:33:26;9.50;;;7.20;;
64560;SDS011;50960;46.838;16.838;2023-02-28T13:38:44;8.20;;;7.45;;
64560;SDS011;50960;46.838;16.838;2023-02-28T13:41:47;8.05;;;7.25;;
64560;SDS011;50960;46.838;16.838;2023-02-28T13:44:07;8.30;;;7.32;;
64560;SDS011;50960;46.838;16.838;2023-02-28T13:47:21;7.28;;;6.00;;
64560;SDS011;50960;46.838;16.838;2023-02-28T14:09:23;9.18;;;7.25;;
64560;SDS011;50960;46.838;16.838;2023-02-28T14:11:54;7.88;;;7.18;;
64560;SDS011;50960;46.838;16.838;2023-02-28T14:17:06;8.48;;;7.43;;
64560;SDS011;50960;46.838;16.838;2023-02-28T14:19:39;8.82;;;8.10;;
64560;SDS011;50960;46.838;16.838;2023-02-28T14:25:33;8.38;;;7.57;;
64560;SDS011;50960;46.838;16.838;2023-02-28T14:28:20;9.10;;;8.30;;
64560;SDS011;50960;46.838;16.838;2023-02-28T14:31:40;9.10;;;8.20;;
64560;SDS011;50960;46.838;16.838;2023-02-28T14:36:41;8.82;;;8.02;;
64560;SDS011;50960;46.838;16.838;2023-02-28T14:39:13;8.45;;;7.75;;
64560;SDS011;50960;46.838;16.838;2023-02-28T14:41:45;8.77;;;7.88;;
64560;SDS011;50960;46.838;16.838;2023-02-28T14:46:43;8.88;;;7.97;;
64560;SDS011;50960;46.838;16.838;2023-02-28T14:54:40;9.20;;;8.40;;
64560;SDS011;50960;46.838;16.838;2023-02-28T14:57:30;10.48;;;8.43;;
64560;SDS011;50960;46.838;16.838;2023-02-28T15:02:40;9.52;;;8.52;;
64560;SDS011;50960;46.838;16.838;2023-02-28T15:07:44;11.05;;;8.98;;
64560;SDS011;50960;46.838;16.838;2023-02-28T15:10:21;9.57;;;8.68;;
64560;SDS011;50960;46.838;16.838;2023-02-28T15:12:54;9.18;;;8.20;;
64560;SDS011;50960;46.838;16.838;2023-02-28T15:15:27;12.32;;;10.88;;
64560;SDS011;50960;46.838;16.838;2023-02-28T15:18:20;9.73;;;8.80;;
64560;SDS011;50960;46.838;16.838;2023-02-28T15:20:50;9.63;;;8.70;;
64560;SDS011;50960;46.838;16.838;2023-02-28T15:23:17;9.80;;;8.80;;
64560;SDS011;50960;46.838;16.838;2023-02-28T15:25:48;9.80;;;8.82;;
64560;SDS011;50960;46.838;16.838;2023-02-28T15:28:19;9.30;;;8.43;;
64560;SDS011;50960;46.838;16.838;2023-02-28T15:30:51;9.30;;;7.65;;
64560;SDS011;50960;46.838;16.838;2023-02-28T15:33:21;9.70;;;8.80;;
64560;SDS011;50960;46.838;16.838;2023-02-28T15:36:03;9.98;;;8.75;;
64560;SDS011;50960;46.838;16.838;2023-02-28T15:38:51;9.88;;;8.48;;
64560;SDS011;50960;46.838;16.838;2023-02-28T15:41:22;9.23;;;8.23;;
64560;SDS011;50960;46.838;16.838;2023-02-28T15:44:13;9.80;;;8.80;;
64560;SDS011;50960;46.838;16.838;2023-02-28T15:46:43;8.77;;;7.90;;
64560;SDS011;50960;46.838;16.838;2023-02-28T15:49:21;9.30;;;8.13;;
64560;SDS011;50960;46.838;16.838;2023-02-28T15:51:49;8.85;;;8.05;;
64560;SDS011;50960;46.838;16.838;2023-02-28T15:54:21;9.07;;;8.02;;
64560;SDS011;50960;46.838;16.838;2023-02-28T15:56:53;9.00;;;8.15;;
64560;SDS011;50960;46.838;16.838;2023-02-28T15:59:26;8.50;;;7.78;;
64560;SDS011;50960;46.838;16.838;2023-02-28T16:02:13;9.13;;;8.07;;
64560;SDS011;50960;46.838;16.838;2023-02-28T16:04:58;9.20;;;8.30;;
64560;SDS011;50960;46.838;16.838;2023-02-28T16:07:28;11.55;;;8.52;;
64560;SDS011;50960;46.838;16.838;2023-02-28T16:09:55;10.93;;;8.95;;
64560;SDS011;50960;46.838;16.838;2023-02-28T16:12:24;10.85;;;9.40;;
64560;SDS011;50960;46.838;16.838;2023-02-28T16:14:53;9.40;;;8.40;;
64560;SDS011;50960;46.838;16.838;2023-02-28T16:17:23;10.73;;;9.63;;
64560;SDS011;50960;46.838;16.838;2023-02-28T16:19:54;10.35;;;8.90;;
64560;SDS011;50960;46.838;16.838;2023-02-28T16:22:21;12.13;;;10.52;;
64560;SDS011;50960;46.838;16.838;2023-02-28T16:24:48;11.82;;;10.63;;
64560;SDS011;50960;46.838;16.838;2023-02-28T16:27:48;12.52;;;11.23;;
64560;SDS011;50960;46.838;16.838;2023-02-28T16:30:09;10.45;;;9.43;;
64560;SDS011;50960;46.838;16.838;2023-02-28T16:32:44;12.40;;;9.77;;
64560;SDS011;50960;46.838;16.838;2023-02-28T16:35:10;11.30;;;10.02;;
64560;SDS011;50960;46.838;16.838;2023-02-28T16:37:39;11.00;;;9.60;;
64560;SDS011;50960;46.838;16.838;2023-02-28T16:40:08;21.83;;;8.35;;
64560;SDS011;50960;46.838;16.838;2023-02-28T16:42:41;9.38;;;8.48;;
64560;SDS011;50960;46.838;16.838;2023-02-28T16:45:31;10.40;;;8.68;;
64560;SDS011;50960;46.838;16.838;2023-02-28T16:47:56;10.20;;;8.75;;
64560;SDS011;50960;46.838;16.838;2023-02-28T16:50:24;9.90;;;8.90;;
64560;SDS011;50960;46.838;16.838;2023-02-28T16:52:52;11.27;;;9.52;;
64560;SDS011;50960;46.838;16.838;2023-02-28T16:55:20;11.85;;;9.43;;
64560;SDS011;50960;46.838;16.838;2023-02-28T16:57:50;10.88;;;9.30;;
64560;SDS011;50960;46.838;16.838;2023-02-28T17:00:18;12.30;;;9.95;;
64560;SDS011;50960;46.838;16.838;2023-02-28T17:02:45;11.60;;;10.40;;
64560;SDS011;50960;46.838;16.838;2023-02-28T17:05:11;10.45;;;9.45;;
64560;SDS011;50960;46.838;16.838;2023-02-28T17:07:39;10.10;;;9.10;;
64560;SDS011;50960;46.838;16.838;2023-02-28T17:10:25;11.05;;;9.95;;
64560;SDS011;50960;46.838;16.838;2023-02-28T17:12:52;9.55;;;8.65;;
64560;SDS011;50960;46.838;16.838;2023-02-28T17:15:19;10.82;;;9.57;;
64560;SDS011;50960;46.838;16.838;2023-02-28T17:17:46;11.65;;;10.30;;
64560;SDS011;50960;46.838;16.838;2023-02-28T17:20:15;13.00;;;10.73;;
64560;SDS011;50960;46.838;16.838;2023-02-28T17:22:43;16.80;;;14.88;;
64560;SDS011;50960;46.838;16.838;2023-02-28T17:25:13;18.23;;;15.55;;
64560;SDS011;50960;46.838;16.838;2023-02-28T17:27:39;16.33;;;14.50;;
64560;SDS011;50960;46.838;16.838;2023-02-28T17:30:25;24.40;;;20.95;;
64560;SDS011;50960;46.838;16.838;2023-02-28T17:32:53;24.05;;;19.67;;
64560;SDS011;50960;46.838;16.838;2023-02-28T17:35:20;27.35;;;24.00;;
64560;SDS011;50960;46.838;16.838;2023-02-28T17:37:48;19.52;;;17.38;;
64560;SDS011;50960;46.838;16.838;2023-02-28T17:40:19;19.40;;;16.55;;
64560;SDS011;50960;46.838;16.838;2023-02-28T17:42:47;17.02;;;14.52;;
64560;SDS011;50960;46.838;16.838;2023-02-28T17:45:15;16.67;;;14.88;;
64560;SDS011;50960;46.838;16.838;2023-02-28T17:47:42;16.65;;;14.85;;
64560;SDS011;50960;46.838;16.838;2023-02-28T17:50:15;17.80;;;15.93;;
64560;SDS011;50960;46.838;16.838;2023-02-28T17:52:43;23.35;;;16.98;;
64560;SDS011;50960;46.838;16.838;2023-02-28T17:55:10;17.88;;;15.95;;
64560;SDS011;50960;46.838;16.838;2023-02-28T17:57:37;17.83;;;15.93;;
64560;SDS011;50960;46.838;16.838;2023-02-28T18:00:04;18.30;;;16.25;;
64560;SDS011;50960;46.838;16.838;2023-02-28T18:02:32;25.60;;;19.63;;
64560;SDS011;50960;46.838;16.838;2023-02-28T18:04:59;25.42;;;18.02;;
64560;SDS011;50960;46.838;16.838;2023-02-28T18:07:25;22.67;;;17.85;;
64560;SDS011;50960;46.838;16.838;2023-02-28T18:09:51;22.38;;;18.73;;
64560;SDS011;50960;46.838;16.838;2023-02-28T18:12:18;26.80;;;18.00;;
64560;SDS011;50960;46.838;16.838;2023-02-28T18:14:44;21.27;;;17.45;;
64560;SDS011;50960;46.838;16.838;2023-02-28T18:17:11;25.55;;;20.17;;
64560;SDS011;50960;46.838;16.838;2023-02-28T18:19:38;29.58;;;23.38;;
64560;SDS011;50960;46.838;16.838;2023-02-28T18:22:04;24.83;;;19.48;;
64560;SDS011;50960;46.838;16.838;2023-02-28T18:24:34;46.20;;;37.97;;
64560;SDS011;50960;46.838;16.838;2023-02-28T18:27:01;34.63;;;26.85;;
64560;SDS011;50960;46.838;16.838;2023-02-28T18:29:28;26.40;;;21.50;;
64560;SDS011;50960;46.838;16.838;2023-02-28T18:31:55;23.92;;;18.48;;
64560;SDS011;50960;46.838;16.838;2023-02-28T18:34:22;23.50;;;18.80;;
64560;SDS011;50960;46.838;16.838;2023-02-28T18:36:50;23.95;;;19.55;;
64560;SDS011;50960;46.838;16.838;2023-02-28T18:39:17;22.27;;;19.60;;
64560;SDS011;50960;46.838;16.838;2023-02-28T18:41:45;23.17;;;18.58;;
64560;SDS011;50960;46.838;16.838;2023-02-28T18:44:12;22.40;;;17.33;;
64560;SDS011;50960;46.838;16.838;2023-02-28T18:46:39;18.85;;;16.48;;
64560;SDS011;50960;46.838;16.838;2023-02-28T18:49:06;21.42;;;15.73;;
64560;SDS011;50960;46.838;16.838;2023-02-28T18:51:33;21.83;;;16.40;;
64560;SDS011;50960;46.838;16.838;2023-02-28T18:54:00;17.90;;;15.77;;
64560;SDS011;50960;46.838;16.838;2023-02-28T18:56:26;20.35;;;16.05;;
64560;SDS011;50960;46.838;16.838;2023-02-28T18:58:57;17.02;;;14.40;;
64560;SDS011;50960;46.838;16.838;2023-02-28T19:01:27;21.13;;;15.98;;
64560;SDS011;50960;46.838;16.838;2023-02-28T19:03:57;18.25;;;15.60;;
64560;SDS011;50960;46.838;16.838;2023-02-28T19:06:29;19.15;;;15.95;;
64560;SDS011;50960;46.838;16.838;2023-02-28T19:08:56;20.35;;;17.27;;
64560;SDS011;50960;46.838;16.838;2023-02-28T19:11:24;20.40;;;18.05;;
64560;SDS011;50960;46.838;16.838;2023-02-28T19:13:51;22.48;;;19.00;;
64560;SDS011;50960;46.838;16.838;2023-02-28T19:16:18;25.00;;;21.85;;
64560;SDS011;50960;46.838;16.838;2023-02-28T19:18:46;27.25;;;22.80;;
64560;SDS011;50960;46.838;16.838;2023-02-28T19:21:14;28.88;;;24.73;;
64560;SDS011;50960;46.838;16.838;2023-02-28T19:23:43;37.75;;;31.83;;
64560;SDS011;50960;46.838;16.838;2023-02-28T19:26:11;41.58;;;32.92;;
64560;SDS011;50960;46.838;16.838;2023-02-28T19:28:42;49.28;;;34.83;;
64560;SDS011;50960;46.838;16.838;2023-02-28T19:31:16;48.03;;;33.92;;
64560;SDS011;50960;46.838;16.838;2023-02-28T19:33:44;53.15;;;38.83;;
64560;SDS011;50960;46.838;16.838;2023-02-28T19:36:14;48.30;;;36.65;;
64560;SDS011;50960;46.838;16.838;2023-02-28T19:38:41;43.33;;;33.97;;
64560;SDS011;50960;46.838;16.838;2023-02-28T19:41:09;41.88;;;32.15;;
64560;SDS011;50960;46.838;16.838;2023-02-28T19:43:37;36.92;;;28.15;;
64560;SDS011;50960;46.838;16.838;2023-02-28T19:46:04;33.15;;;27.90;;
64560;SDS011;50960;46.838;16.838;2023-02-28T19:48:33;32.70;;;27.38;;
64560;SDS011;50960;46.838;16.838;2023-02-28T19:51:01;30.23;;;26.15;;
64560;SDS011;50960;46.838;16.838;2023-02-28T19:53:30;29.63;;;26.15;;
64560;SDS011;50960;46.838;16.838;2023-02-28T19:55:57;33.40;;;28.15;;
64560;SDS011;50960;46.838;16.838;2023-02-28T19:58:25;36.65;;;28.13;;
64560;SDS011;50960;46.838;16.838;2023-02-28T20:00:52;34.05;;;28.05;;
64560;SDS011;50960;46.838;16.838;2023-02-28T20:03:18;28.42;;;25.33;;
64560;SDS011;50960;46.838;16.838;2023-02-28T20:05:45;31.17;;;25.65;;
64560;SDS011;50960;46.838;16.838;2023-02-28T20:08:12;31.55;;;25.30;;
64560;SDS011;50960;46.838;16.838;2023-02-28T20:10:40;31.05;;;25.42;;
64560;SDS011;50960;46.838;16.838;2023-02-28T20:13:07;31.45;;;25.00;;
64560;SDS011;50960;46.838;16.838;2023-02-28T20:15:33;30.05;;;24.65;;
64560;SDS011;50960;46.838;16.838;2023-02-28T20:18:00;29.88;;;23.63;;
64560;SDS011;50960;46.838;16.838;2023-02-28T20:20:27;29.83;;;23.63;;
64560;SDS011;50960;46.838;16.838;2023-02-28T20:22:53;29.52;;;24.90;;
64560;SDS011;50960;46.838;16.838;2023-02-28T20:25:19;34.60;;;27.25;;
64560;SDS011;50960;46.838;16.838;2023-02-28T20:27:46;32.72;;;27.67;;
64560;SDS011;50960;46.838;16.838;2023-02-28T20:30:12;35.38;;;28.15;;
64560;SDS011;50960;46.838;16.838;2023-02-28T20:32:39;38.45;;;29.73;;
64560;SDS011;50960;46.838;16.838;2023-02-28T20:35:06;39.40;;;29.85;;
64560;SDS011;50960;46.838;16.838;2023-02-28T20:37:36;35.05;;;29.40;;
64560;SDS011;50960;46.838;16.838;2023-02-28T20:40:03;39.20;;;30.00;;
64560;SDS011;50960;46.838;16.838;2023-02-28T20:42:31;36.13;;;29.58;;
64560;SDS011;50960;46.838;16.838;2023-02-28T20:44:57;35.80;;;28.30;;
64560;SDS011;50960;46.838;16.838;2023-02-28T20:47:24;32.92;;;27.38;;
64560;SDS011;50960;46.838;16.838;2023-02-28T20:49:50;34.33;;;27.67;;
64560;SDS011;50960;46.838;16.838;2023-02-28T20:52:16;34.30;;;25.98;;
64560;SDS011;50960;46.838;16.838;2023-02-28T20:54:44;29.30;;;24.45;;
64560;SDS011;50960;46.838;16.838;2023-02-28T20:57:11;28.17;;;22.23;;
64560;SDS011;50960;46.838;16.838;2023-02-28T20:59:37;30.45;;;25.08;;
64560;SDS011;50960;46.838;16.838;2023-02-28T21:02:06;38.55;;;29.42;;
64560;SDS011;50960;46.838;16.838;2023-02-28T21:04:35;26.85;;;21.52;;
64560;SDS011;50960;46.838;16.838;2023-02-28T21:07:01;29.83;;;22.70;;
64560;SDS011;50960;46.838;16.838;2023-02-28T21:09:28;30.90;;;23.90;;
64560;SDS011;50960;46.838;16.838;2023-02-28T21:11:54;24.75;;;21.85;;
64560;SDS011;50960;46.838;16.838;2023-02-28T21:14:23;27.40;;;21.52;;
64560;SDS011;50960;46.838;16.838;2023-02-28T21:16:50;27.00;;;21.38;;
64560;SDS011;50960;46.838;16.838;2023-02-28T21:19:17;27.17;;;21.90;;
64560;SDS011;50960;46.838;16.838;2023-02-28T21:21:43;27.77;;;22.45;;
64560;SDS011;50960;46.838;16.838;2023-02-28T21:24:16;26.20;;;21.50;;
64560;SDS011;50960;46.838;16.838;2023-02-28T21:26:44;30.73;;;22.77;;
64560;SDS011;50960;46.838;16.838;2023-02-28T21:29:12;27.58;;;22.60;;
64560;SDS011;50960;46.838;16.838;2023-02-28T21:31:39;27.33;;;22.85;;
64560;SDS011;50960;46.838;16.838;2023-02-28T21:34:10;27.38;;;21.67;;
64560;SDS011;50960;46.838;16.838;2023-02-28T21:36:38;27.65;;;21.73;;
64560;SDS011;50960;46.838;16.838;2023-02-28T21:39:20;28.25;;;22.27;;
64560;SDS011;50960;46.838;16.838;2023-02-28T21:41:50;25.75;;;22.05;;
64560;SDS011;50960;46.838;16.838;2023-02-28T21:44:17;26.20;;;21.70;;
64560;SDS011;50960;46.838;16.838;2023-02-28T21:46:45;26.33;;;21.67;;
64560;SDS011;50960;46.838;16.838;2023-02-28T21:49:15;28.15;;;22.35;;
64560;SDS011;50960;46.838;16.838;2023-02-28T21:51:42;26.40;;;21.63;;
64560;SDS011;50960;46.838;16.838;2023-02-28T21:54:09;26.73;;;21.48;;
64560;SDS011;50960;46.838;16.838;2023-02-28T21:56:35;24.23;;;19.33;;
64560;SDS011;50960;46.838;16.838;2023-02-28T21:59:02;24.95;;;20.60;;
64560;SDS011;50960;46.838;16.838;2023-02-28T22:01:32;25.90;;;20.75;;
64560;SDS011;50960;46.838;16.838;2023-02-28T22:04:01;22.05;;;19.33;;
64560;SDS011;50960;46.838;16.838;2023-02-28T22:06:30;24.40;;;21.23;;
